sensor_id;sensor_type;location;lat;lon;timestamp;temperature;humidity
52919;DHT22;38793;52.690;6.812;2023-04-30T00:01:52;8.20;99.90
52919;DHT22;38793;52.690;6.812;2023-04-30T00:04:18;8.30;99.90
52919;DHT22;38793;52.690;6.812;2023-04-30T00:06:43;8.20;99.90
52919;DHT22;38793;52.690;6.812;2023-04-30T00:09:09;8.20;99.90
52919;DHT22;38793;52.690;6.812;2023-04-30T00:11:35;8.20;99.90
52919;DHT22;38793;52.690;6.812;2023-04-30T00:14:00;8.20;99.90
52919;DHT22;38793;52.690;6.812;2023-04-30T00:16:26;8.20;99.90
52919;DHT22;38793;52.690;6.812;2023-04-30T00:18:51;8.20;99.90
52919;DHT22;38793;52.690;6.812;2023-04-30T00:21:17;8.10;99.90
52919;DHT22;38793;52.690;6.812;2023-04-30T00:23:43;8.10;99.90
52919;DHT22;38793;52.690;6.812;2023-04-30T00:26:08;8.10;99.90
52919;DHT22;38793;52.690;6.812;2023-04-30T00:28:34;8.00;99.90
52919;DHT22;38793;52.690;6.812;2023-04-30T00:30:59;8.10;99.90
52919;DHT22;38793;52.690;6.812;2023-04-30T00:33:25;8.00;99.90
52919;DHT22;38793;52.690;6.812;2023-04-30T00:35:51;8.00;99.90
52919;DHT22;38793;52.690;6.812;2023-04-30T00:38:16;8.00;99.90
52919;DHT22;38793;52.690;6.812;2023-04-30T00:40:42;7.90;99.90
52919;DHT22;38793;52.690;6.812;2023-04-30T00:43:08;7.90;99.90
52919;DHT22;38793;52.690;6.812;2023-04-30T00:45:34;7.80;99.90
52919;DHT22;38793;52.690;6.812;2023-04-30T00:47:59;7.80;99.90
52919;DHT22;38793;52.690;6.812;2023-04-30T00:50:25;7.80;99.90
52919;DHT22;38793;52.690;6.812;2023-04-30T00:52:51;7.70;99.90
52919;DHT22;38793;52.690;6.812;2023-04-30T00:55:17;7.80;99.90
52919;DHT22;38793;52.690;6.812;2023-04-30T00:57:43;7.70;99.90
52919;DHT22;38793;52.690;6.812;2023-04-30T01:00:09;7.60;99.90
52919;DHT22;38793;52.690;6.812;2023-04-30T01:02:36;7.40;99.90
52919;DHT22;38793;52.690;6.812;2023-04-30T01:05:03;7.40;99.90
52919;DHT22;38793;52.690;6.812;2023-04-30T01:07:30;7.30;99.90
52919;DHT22;38793;52.690;6.812;2023-04-30T01:09:56;7.20;99.90
52919;DHT22;38793;52.690;6.812;2023-04-30T01:12:28;7.10;99.90
52919;DHT22;38793;52.690;6.812;2023-04-30T01:15:22;7.00;99.90
52919;DHT22;38793;52.690;6.812;2023-04-30T01:20:27;7.10;99.90
52919;DHT22;38793;52.690;6.812;2023-04-30T01:23:13;7.10;99.90
52919;DHT22;38793;52.690;6.812;2023-04-30T01:28:16;7.20;99.90
52919;DHT22;38793;52.690;6.812;2023-04-30T01:30:43;7.20;99.90
52919;DHT22;38793;52.690;6.812;2023-04-30T01:33:10;7.20;99.90
52919;DHT22;38793;52.690;6.812;2023-04-30T01:41:29;7.20;99.90
52919;DHT22;38793;52.690;6.812;2023-04-30T01:47:40;7.10;99.90
52919;DHT22;38793;52.690;6.812;2023-04-30T01:52:53;7.00;99.90
52919;DHT22;38793;52.690;6.812;2023-04-30T01:55:48;6.90;99.90
52919;DHT22;38793;52.690;6.812;2023-04-30T01:58:16;6.80;99.90
52919;DHT22;38793;52.690;6.812;2023-04-30T02:00:42;6.80;99.90
52919;DHT22;38793;52.690;6.812;2023-04-30T02:03:08;6.80;99.90
52919;DHT22;38793;52.690;6.812;2023-04-30T02:05:34;6.80;99.90
52919;DHT22;38793;52.690;6.812;2023-04-30T02:07:59;6.80;99.90
52919;DHT22;38793;52.690;6.812;2023-04-30T02:10:26;6.70;99.90
52919;DHT22;38793;52.690;6.812;2023-04-30T02:12:52;6.60;99.90
52919;DHT22;38793;52.690;6.812;2023-04-30T02:15:18;6.50;99.90
52919;DHT22;38793;52.690;6.812;2023-04-30T02:17:43;6.40;99.90
52919;DHT22;38793;52.690;6.812;2023-04-30T02:20:09;6.30;99.90
52919;DHT22;38793;52.690;6.812;2023-04-30T02:22:35;6.30;99.90
52919;DHT22;38793;52.690;6.812;2023-04-30T02:25:02;6.30;99.90
52919;DHT22;38793;52.690;6.812;2023-04-30T02:27:29;6.20;99.90
52919;DHT22;38793;52.690;6.812;2023-04-30T02:29:56;6.20;99.90
52919;DHT22;38793;52.690;6.812;2023-04-30T02:32:21;6.20;99.90
52919;DHT22;38793;52.690;6.812;2023-04-30T02:34:47;6.10;99.90
52919;DHT22;38793;52.690;6.812;2023-04-30T02:37:13;6.10;99.90
52919;DHT22;38793;52.690;6.812;2023-04-30T02:39:38;6.20;99.90
52919;DHT22;38793;52.690;6.812;2023-04-30T02:42:04;6.20;99.90
52919;DHT22;38793;52.690;6.812;2023-04-30T02:44:31;6.20;99.90
52919;DHT22;38793;52.690;6.812;2023-04-30T02:46:57;6.20;99.90
52919;DHT22;38793;52.690;6.812;2023-04-30T02:49:23;6.20;99.90
52919;DHT22;38793;52.690;6.812;2023-04-30T02:51:48;6.30;99.90
52919;DHT22;38793;52.690;6.812;2023-04-30T02:54:14;6.30;99.90
52919;DHT22;38793;52.690;6.812;2023-04-30T02:56:39;6.20;99.90
52919;DHT22;38793;52.690;6.812;2023-04-30T02:59:06;6.20;99.90
52919;DHT22;38793;52.690;6.812;2023-04-30T03:01:32;6.10;99.90
52919;DHT22;38793;52.690;6.812;2023-04-30T03:03:58;6.10;99.90
52919;DHT22;38793;52.690;6.812;2023-04-30T03:06:23;6.00;99.90
52919;DHT22;38793;52.690;6.812;2023-04-30T03:08:49;6.10;99.90
52919;DHT22;38793;52.690;6.812;2023-04-30T03:11:15;6.00;99.90
52919;DHT22;38793;52.690;6.812;2023-04-30T03:13:42;5.90;99.90
52919;DHT22;38793;52.690;6.812;2023-04-30T03:16:07;5.90;99.90
52919;DHT22;38793;52.690;6.812;2023-04-30T03:18:33;5.80;99.90
52919;DHT22;38793;52.690;6.812;2023-04-30T03:20:59;5.80;99.90
52919;DHT22;38793;52.690;6.812;2023-04-30T03:23:27;5.80;99.90
52919;DHT22;38793;52.690;6.812;2023-04-30T03:25:53;5.80;99.90
52919;DHT22;38793;52.690;6.812;2023-04-30T03:28:19;5.80;99.90
52919;DHT22;38793;52.690;6.812;2023-04-30T03:30:45;5.80;99.90
52919;DHT22;38793;52.690;6.812;2023-04-30T03:33:11;5.80;99.90
52919;DHT22;38793;52.690;6.812;2023-04-30T03:35:36;5.70;99.90
52919;DHT22;38793;52.690;6.812;2023-04-30T03:38:02;5.70;99.90
52919;DHT22;38793;52.690;6.812;2023-04-30T03:40:28;5.70;99.90
52919;DHT22;38793;52.690;6.812;2023-04-30T03:42:54;5.70;99.90
52919;DHT22;38793;52.690;6.812;2023-04-30T03:45:19;5.70;99.90
52919;DHT22;38793;52.690;6.812;2023-04-30T03:47:45;5.70;99.90
52919;DHT22;38793;52.690;6.812;2023-04-30T03:50:11;5.60;99.90
52919;DHT22;38793;52.690;6.812;2023-04-30T03:52:36;5.60;99.90
52919;DHT22;38793;52.690;6.812;2023-04-30T03:55:03;5.60;99.90
52919;DHT22;38793;52.690;6.812;2023-04-30T03:57:29;5.50;99.90
52919;DHT22;38793;52.690;6.812;2023-04-30T03:59:54;5.50;99.90
52919;DHT22;38793;52.690;6.812;2023-04-30T04:02:20;5.50;99.90
52919;DHT22;38793;52.690;6.812;2023-04-30T04:04:46;5.50;99.90
52919;DHT22;38793;52.690;6.812;2023-04-30T04:07:12;5.60;99.90
52919;DHT22;38793;52.690;6.812;2023-04-30T04:09:39;5.50;99.90
52919;DHT22;38793;52.690;6.812;2023-04-30T04:12:05;5.50;99.90
52919;DHT22;38793;52.690;6.812;2023-04-30T04:14:30;5.50;99.90
52919;DHT22;38793;52.690;6.812;2023-04-30T04:16:56;5.50;99.90
52919;DHT22;38793;52.690;6.812;2023-04-30T04:19:25;5.50;99.90
52919;DHT22;38793;52.690;6.812;2023-04-30T04:21:51;5.50;99.90
52919;DHT22;38793;52.690;6.812;2023-04-30T04:24:17;5.60;99.90
52919;DHT22;38793;52.690;6.812;2023-04-30T04:26:42;5.60;99.90
52919;DHT22;38793;52.690;6.812;2023-04-30T04:29:09;5.60;99.90
52919;DHT22;38793;52.690;6.812;2023-04-30T04:31:35;5.60;99.90
52919;DHT22;38793;52.690;6.812;2023-04-30T04:34:02;5.60;99.90
52919;DHT22;38793;52.690;6.812;2023-04-30T04:36:29;5.60;99.90
52919;DHT22;38793;52.690;6.812;2023-04-30T04:38:55;5.60;99.90
52919;DHT22;38793;52.690;6.812;2023-04-30T04:41:30;5.60;99.90
52919;DHT22;38793;52.690;6.812;2023-04-30T04:43:57;5.70;99.90
52919;DHT22;38793;52.690;6.812;2023-04-30T04:46:24;5.70;99.90
52919;DHT22;38793;52.690;6.812;2023-04-30T04:48:50;5.70;99.90
52919;DHT22;38793;52.690;6.812;2023-04-30T04:51:15;5.80;99.90
52919;DHT22;38793;52.690;6.812;2023-04-30T04:53:41;5.80;99.90
52919;DHT22;38793;52.690;6.812;2023-04-30T04:56:07;5.90;99.90
52919;DHT22;38793;52.690;6.812;2023-04-30T04:58:33;5.90;99.90
52919;DHT22;38793;52.690;6.812;2023-04-30T05:00:59;6.00;99.90
52919;DHT22;38793;52.690;6.812;2023-04-30T05:03:29;6.00;99.90
52919;DHT22;38793;52.690;6.812;2023-04-30T05:05:55;6.10;99.90
52919;DHT22;38793;52.690;6.812;2023-04-30T05:08:21;6.10;99.90
52919;DHT22;38793;52.690;6.812;2023-04-30T05:10:47;6.20;99.90
52919;DHT22;38793;52.690;6.812;2023-04-30T05:13:12;6.20;99.90
52919;DHT22;38793;52.690;6.812;2023-04-30T05:15:38;6.30;99.90
52919;DHT22;38793;52.690;6.812;2023-04-30T05:18:03;6.40;99.90
52919;DHT22;38793;52.690;6.812;2023-04-30T05:20:29;6.50;99.90
52919;DHT22;38793;52.690;6.812;2023-04-30T05:22:55;6.50;99.90
52919;DHT22;38793;52.690;6.812;2023-04-30T05:25:20;6.50;99.90
52919;DHT22;38793;52.690;6.812;2023-04-30T05:27:46;6.50;99.90
52919;DHT22;38793;52.690;6.812;2023-04-30T05:30:11;6.60;99.90
52919;DHT22;38793;52.690;6.812;2023-04-30T05:32:37;6.70;99.90
52919;DHT22;38793;52.690;6.812;2023-04-30T05:35:03;6.70;99.90
52919;DHT22;38793;52.690;6.812;2023-04-30T05:37:28;6.80;99.90
52919;DHT22;38793;52.690;6.812;2023-04-30T05:39:54;6.90;99.90
52919;DHT22;38793;52.690;6.812;2023-04-30T05:42:20;7.00;99.90
52919;DHT22;38793;52.690;6.812;2023-04-30T05:44:46;7.00;99.90
52919;DHT22;38793;52.690;6.812;2023-04-30T05:47:12;7.10;99.90
52919;DHT22;38793;52.690;6.812;2023-04-30T05:49:38;7.10;99.90
52919;DHT22;38793;52.690;6.812;2023-04-30T05:52:03;7.20;99.90
52919;DHT22;38793;52.690;6.812;2023-04-30T05:54:30;7.30;99.90
52919;DHT22;38793;52.690;6.812;2023-04-30T05:56:55;7.50;99.90
52919;DHT22;38793;52.690;6.812;2023-04-30T05:59:21;7.60;99.90
52919;DHT22;38793;52.690;6.812;2023-04-30T06:01:47;7.70;99.90
52919;DHT22;38793;52.690;6.812;2023-04-30T06:04:12;7.90;99.90
52919;DHT22;38793;52.690;6.812;2023-04-30T06:06:38;8.00;99.90
52919;DHT22;38793;52.690;6.812;2023-04-30T06:09:03;8.10;99.90
52919;DHT22;38793;52.690;6.812;2023-04-30T06:11:29;8.20;99.90
52919;DHT22;38793;52.690;6.812;2023-04-30T06:13:55;8.20;99.90
52919;DHT22;38793;52.690;6.812;2023-04-30T06:16:21;8.40;99.90
52919;DHT22;38793;52.690;6.812;2023-04-30T06:18:47;8.40;99.90
52919;DHT22;38793;52.690;6.812;2023-04-30T06:21:13;8.60;99.90
52919;DHT22;38793;52.690;6.812;2023-04-30T06:23:38;8.60;99.90
52919;DHT22;38793;52.690;6.812;2023-04-30T06:26:04;8.70;99.90
52919;DHT22;38793;52.690;6.812;2023-04-30T06:28:30;8.80;99.90
52919;DHT22;38793;52.690;6.812;2023-04-30T06:30:55;8.80;99.90
52919;DHT22;38793;52.690;6.812;2023-04-30T06:33:21;8.80;99.90
52919;DHT22;38793;52.690;6.812;2023-04-30T06:35:47;8.90;99.90
52919;DHT22;38793;52.690;6.812;2023-04-30T06:38:15;9.00;99.90
52919;DHT22;38793;52.690;6.812;2023-04-30T06:40:42;9.10;99.90
52919;DHT22;38793;52.690;6.812;2023-04-30T06:43:07;9.20;99.90
52919;DHT22;38793;52.690;6.812;2023-04-30T06:45:33;9.30;99.90
52919;DHT22;38793;52.690;6.812;2023-04-30T06:47:59;9.40;99.90
52919;DHT22;38793;52.690;6.812;2023-04-30T06:50:25;9.50;99.90
52919;DHT22;38793;52.690;6.812;2023-04-30T06:52:51;9.50;99.90
52919;DHT22;38793;52.690;6.812;2023-04-30T06:55:16;9.60;99.90
52919;DHT22;38793;52.690;6.812;2023-04-30T06:57:42;9.60;99.90
52919;DHT22;38793;52.690;6.812;2023-04-30T07:00:08;9.60;99.90
52919;DHT22;38793;52.690;6.812;2023-04-30T07:02:34;9.60;99.90
52919;DHT22;38793;52.690;6.812;2023-04-30T07:05:00;9.60;99.90
52919;DHT22;38793;52.690;6.812;2023-04-30T07:07:25;9.60;99.90
52919;DHT22;38793;52.690;6.812;2023-04-30T07:09:51;9.60;99.90
52919;DHT22;38793;52.690;6.812;2023-04-30T07:12:19;9.70;99.90
52919;DHT22;38793;52.690;6.812;2023-04-30T07:14:44;9.70;99.90
52919;DHT22;38793;52.690;6.812;2023-04-30T07:17:10;9.80;99.90
52919;DHT22;38793;52.690;6.812;2023-04-30T07:19:35;9.80;99.90
52919;DHT22;38793;52.690;6.812;2023-04-30T07:22:01;9.80;99.90
52919;DHT22;38793;52.690;6.812;2023-04-30T07:24:27;9.80;99.90
52919;DHT22;38793;52.690;6.812;2023-04-30T07:26:53;9.90;99.90
52919;DHT22;38793;52.690;6.812;2023-04-30T07:29:18;9.90;99.90
52919;DHT22;38793;52.690;6.812;2023-04-30T07:31:44;10.00;99.90
52919;DHT22;38793;52.690;6.812;2023-04-30T07:34:10;10.00;99.90
52919;DHT22;38793;52.690;6.812;2023-04-30T07:36:35;10.10;99.90
52919;DHT22;38793;52.690;6.812;2023-04-30T07:39:03;10.10;99.90
52919;DHT22;38793;52.690;6.812;2023-04-30T07:41:29;10.20;99.90
52919;DHT22;38793;52.690;6.812;2023-04-30T07:43:55;10.30;99.90
52919;DHT22;38793;52.690;6.812;2023-04-30T07:46:21;10.30;99.90
52919;DHT22;38793;52.690;6.812;2023-04-30T07:48:47;10.30;99.90
52919;DHT22;38793;52.690;6.812;2023-04-30T07:51:12;10.30;99.90
52919;DHT22;38793;52.690;6.812;2023-04-30T07:53:38;10.30;99.90
52919;DHT22;38793;52.690;6.812;2023-04-30T07:56:03;10.40;99.90
52919;DHT22;38793;52.690;6.812;2023-04-30T07:58:29;10.50;99.90
52919;DHT22;38793;52.690;6.812;2023-04-30T08:00:55;10.50;99.90
52919;DHT22;38793;52.690;6.812;2023-04-30T08:03:21;10.60;99.90
52919;DHT22;38793;52.690;6.812;2023-04-30T08:05:46;10.70;99.90
52919;DHT22;38793;52.690;6.812;2023-04-30T08:08:12;10.80;99.90
52919;DHT22;38793;52.690;6.812;2023-04-30T08:10:38;10.80;99.90
52919;DHT22;38793;52.690;6.812;2023-04-30T08:13:04;10.90;99.90
52919;DHT22;38793;52.690;6.812;2023-04-30T08:15:30;11.10;99.90
52919;DHT22;38793;52.690;6.812;2023-04-30T08:17:55;11.20;99.90
52919;DHT22;38793;52.690;6.812;2023-04-30T08:20:21;11.20;99.90
52919;DHT22;38793;52.690;6.812;2023-04-30T08:22:48;11.30;99.90
52919;DHT22;38793;52.690;6.812;2023-04-30T08:25:13;11.40;99.90
52919;DHT22;38793;52.690;6.812;2023-04-30T08:27:39;11.40;99.90
52919;DHT22;38793;52.690;6.812;2023-04-30T08:30:06;11.50;99.90
52919;DHT22;38793;52.690;6.812;2023-04-30T08:32:34;11.60;99.90
52919;DHT22;38793;52.690;6.812;2023-04-30T08:35:04;11.60;99.90
52919;DHT22;38793;52.690;6.812;2023-04-30T08:37:30;11.70;99.90
52919;DHT22;38793;52.690;6.812;2023-04-30T08:39:55;11.70;99.90
52919;DHT22;38793;52.690;6.812;2023-04-30T08:42:24;11.80;99.90
52919;DHT22;38793;52.690;6.812;2023-04-30T08:44:54;11.80;99.90
52919;DHT22;38793;52.690;6.812;2023-04-30T08:47:19;11.80;99.90
52919;DHT22;38793;52.690;6.812;2023-04-30T08:49:46;11.90;99.90
52919;DHT22;38793;52.690;6.812;2023-04-30T08:52:12;12.00;99.90
52919;DHT22;38793;52.690;6.812;2023-04-30T08:54:37;12.10;99.90
52919;DHT22;38793;52.690;6.812;2023-04-30T08:57:04;12.20;99.90
52919;DHT22;38793;52.690;6.812;2023-04-30T08:59:30;12.20;99.90
52919;DHT22;38793;52.690;6.812;2023-04-30T09:01:55;12.30;99.90
52919;DHT22;38793;52.690;6.812;2023-04-30T09:04:21;12.30;99.90
52919;DHT22;38793;52.690;6.812;2023-04-30T09:06:47;12.40;99.90
52919;DHT22;38793;52.690;6.812;2023-04-30T09:09:14;12.50;99.90
52919;DHT22;38793;52.690;6.812;2023-04-30T09:11:41;12.50;99.90
52919;DHT22;38793;52.690;6.812;2023-04-30T09:14:07;12.50;99.90
52919;DHT22;38793;52.690;6.812;2023-04-30T09:16:47;12.60;99.90
52919;DHT22;38793;52.690;6.812;2023-04-30T09:19:27;12.60;99.90
52919;DHT22;38793;52.690;6.812;2023-04-30T09:21:53;12.60;99.90
52919;DHT22;38793;52.690;6.812;2023-04-30T09:24:19;12.70;99.90
52919;DHT22;38793;52.690;6.812;2023-04-30T09:26:45;12.70;99.90
52919;DHT22;38793;52.690;6.812;2023-04-30T09:29:12;12.80;99.90
52919;DHT22;38793;52.690;6.812;2023-04-30T09:31:40;12.90;99.90
52919;DHT22;38793;52.690;6.812;2023-04-30T09:34:05;13.00;99.90
52919;DHT22;38793;52.690;6.812;2023-04-30T09:36:32;13.00;99.90
52919;DHT22;38793;52.690;6.812;2023-04-30T09:39:16;13.10;99.90
52919;DHT22;38793;52.690;6.812;2023-04-30T09:41:42;13.20;99.90
52919;DHT22;38793;52.690;6.812;2023-04-30T09:44:27;13.20;99.90
52919;DHT22;38793;52.690;6.812;2023-04-30T09:46:55;13.30;99.90
52919;DHT22;38793;52.690;6.812;2023-04-30T09:49:21;13.30;99.90
52919;DHT22;38793;52.690;6.812;2023-04-30T09:51:58;13.40;99.90
52919;DHT22;38793;52.690;6.812;2023-04-30T09:54:31;13.40;99.90
52919;DHT22;38793;52.690;6.812;2023-04-30T09:57:00;13.50;99.90
52919;DHT22;38793;52.690;6.812;2023-04-30T09:59:33;13.50;99.90
52919;DHT22;38793;52.690;6.812;2023-04-30T10:02:05;13.50;99.90
52919;DHT22;38793;52.690;6.812;2023-04-30T10:04:36;13.50;99.90
52919;DHT22;38793;52.690;6.812;2023-04-30T10:07:14;13.60;99.90
52919;DHT22;38793;52.690;6.812;2023-04-30T10:10:06;13.60;99.90
52919;DHT22;38793;52.690;6.812;2023-04-30T10:12:40;13.70;99.90
52919;DHT22;38793;52.690;6.812;2023-04-30T10:15:27;13.70;99.90
52919;DHT22;38793;52.690;6.812;2023-04-30T10:18:06;13.80;99.90
52919;DHT22;38793;52.690;6.812;2023-04-30T10:20:35;13.70;99.90
52919;DHT22;38793;52.690;6.812;2023-04-30T10:23:04;13.80;99.90
52919;DHT22;38793;52.690;6.812;2023-04-30T10:25:31;13.80;99.90
52919;DHT22;38793;52.690;6.812;2023-04-30T10:27:57;13.90;99.90
52919;DHT22;38793;52.690;6.812;2023-04-30T10:30:23;13.90;99.90
52919;DHT22;38793;52.690;6.812;2023-04-30T10:32:56;14.00;99.90
52919;DHT22;38793;52.690;6.812;2023-04-30T10:35:38;14.00;99.90
52919;DHT22;38793;52.690;6.812;2023-04-30T10:38:26;14.10;99.90
52919;DHT22;38793;52.690;6.812;2023-04-30T10:40:56;14.20;99.90
52919;DHT22;38793;52.690;6.812;2023-04-30T10:43:26;14.40;99.90
52919;DHT22;38793;52.690;6.812;2023-04-30T10:45:51;14.50;99.90
52919;DHT22;38793;52.690;6.812;2023-04-30T10:48:21;14.70;99.90
52919;DHT22;38793;52.690;6.812;2023-04-30T10:50:51;14.80;99.90
52919;DHT22;38793;52.690;6.812;2023-04-30T10:53:18;15.00;99.90
52919;DHT22;38793;52.690;6.812;2023-04-30T10:55:47;15.10;99.90
52919;DHT22;38793;52.690;6.812;2023-04-30T10:58:30;15.30;99.80
52919;DHT22;38793;52.690;6.812;2023-04-30T11:01:13;15.40;99.40
52919;DHT22;38793;52.690;6.812;2023-04-30T11:03:40;15.50;98.90
52919;DHT22;38793;52.690;6.812;2023-04-30T11:06:14;15.50;99.20
52919;DHT22;38793;52.690;6.812;2023-04-30T11:08:44;15.60;98.80
52919;DHT22;38793;52.690;6.812;2023-04-30T11:11:11;15.50;97.50
52919;DHT22;38793;52.690;6.812;2023-04-30T11:13:58;15.50;98.50
52919;DHT22;38793;52.690;6.812;2023-04-30T11:16:45;15.50;98.60
52919;DHT22;38793;52.690;6.812;2023-04-30T11:19:13;15.60;98.00
52919;DHT22;38793;52.690;6.812;2023-04-30T11:21:40;15.60;98.60
52919;DHT22;38793;52.690;6.812;2023-04-30T11:24:06;15.60;98.50
52919;DHT22;38793;52.690;6.812;2023-04-30T11:27:03;15.60;98.20
52919;DHT22;38793;52.690;6.812;2023-04-30T11:29:33;15.70;98.40
52919;DHT22;38793;52.690;6.812;2023-04-30T11:32:03;15.80;98.40
52919;DHT22;38793;52.690;6.812;2023-04-30T11:34:29;15.80;98.00
52919;DHT22;38793;52.690;6.812;2023-04-30T11:36:57;15.80;97.80
52919;DHT22;38793;52.690;6.812;2023-04-30T11:39:25;15.90;97.10
52919;DHT22;38793;52.690;6.812;2023-04-30T11:41:51;16.00;97.60
52919;DHT22;38793;52.690;6.812;2023-04-30T11:44:25;16.00;97.80
52919;DHT22;38793;52.690;6.812;2023-04-30T11:46:51;16.10;98.10
52919;DHT22;38793;52.690;6.812;2023-04-30T11:49:19;16.20;97.60
52919;DHT22;38793;52.690;6.812;2023-04-30T11:51:48;16.20;97.20
52919;DHT22;38793;52.690;6.812;2023-04-30T11:54:14;16.30;97.50
52919;DHT22;38793;52.690;6.812;2023-04-30T11:56:45;16.40;97.60
52919;DHT22;38793;52.690;6.812;2023-04-30T11:59:13;16.50;97.30
52919;DHT22;38793;52.690;6.812;2023-04-30T12:01:39;16.50;96.90
52919;DHT22;38793;52.690;6.812;2023-04-30T12:04:06;16.50;96.90
52919;DHT22;38793;52.690;6.812;2023-04-30T12:06:33;16.50;96.80
52919;DHT22;38793;52.690;6.812;2023-04-30T12:09:00;16.50;96.70
52919;DHT22;38793;52.690;6.812;2023-04-30T12:11:30;16.50;96.60
52919;DHT22;38793;52.690;6.812;2023-04-30T12:13:56;16.50;97.00
52919;DHT22;38793;52.690;6.812;2023-04-30T12:16:27;16.60;96.90
52919;DHT22;38793;52.690;6.812;2023-04-30T12:18:53;16.60;96.70
52919;DHT22;38793;52.690;6.812;2023-04-30T12:21:21;16.70;97.00
52919;DHT22;38793;52.690;6.812;2023-04-30T12:23:47;16.70;96.60
52919;DHT22;38793;52.690;6.812;2023-04-30T12:26:12;16.70;96.40
52919;DHT22;38793;52.690;6.812;2023-04-30T12:28:38;16.60;95.90
52919;DHT22;38793;52.690;6.812;2023-04-30T12:31:04;16.70;96.40
52919;DHT22;38793;52.690;6.812;2023-04-30T12:33:31;16.70;96.80
52919;DHT22;38793;52.690;6.812;2023-04-30T12:35:56;16.80;96.70
52919;DHT22;38793;52.690;6.812;2023-04-30T12:38:25;17.00;96.80
52919;DHT22;38793;52.690;6.812;2023-04-30T12:40:51;17.10;96.30
52919;DHT22;38793;52.690;6.812;2023-04-30T12:43:17;17.20;96.00
52919;DHT22;38793;52.690;6.812;2023-04-30T12:46:00;17.20;96.20
52919;DHT22;38793;52.690;6.812;2023-04-30T12:48:27;17.30;95.80
52919;DHT22;38793;52.690;6.812;2023-04-30T12:50:54;17.30;95.50
52919;DHT22;38793;52.690;6.812;2023-04-30T12:53:21;17.30;96.30
52919;DHT22;38793;52.690;6.812;2023-04-30T12:56:05;17.30;96.30
52919;DHT22;38793;52.690;6.812;2023-04-30T12:58:31;17.30;96.00
52919;DHT22;38793;52.690;6.812;2023-04-30T13:00:57;17.30;96.00
52919;DHT22;38793;52.690;6.812;2023-04-30T13:03:23;17.30;95.90
52919;DHT22;38793;52.690;6.812;2023-04-30T13:05:52;17.40;95.40
52919;DHT22;38793;52.690;6.812;2023-04-30T13:08:18;17.50;95.40
52919;DHT22;38793;52.690;6.812;2023-04-30T13:10:45;17.50;95.50
52919;DHT22;38793;52.690;6.812;2023-04-30T13:13:12;17.60;94.90
52919;DHT22;38793;52.690;6.812;2023-04-30T13:15:38;17.60;94.80
52919;DHT22;38793;52.690;6.812;2023-04-30T13:18:05;17.60;95.20
52919;DHT22;38793;52.690;6.812;2023-04-30T13:20:36;17.60;95.50
52919;DHT22;38793;52.690;6.812;2023-04-30T13:23:02;17.70;95.50
52919;DHT22;38793;52.690;6.812;2023-04-30T13:25:28;17.70;94.50
52919;DHT22;38793;52.690;6.812;2023-04-30T13:27:54;17.70;95.00
52919;DHT22;38793;52.690;6.812;2023-04-30T13:30:22;17.70;94.50
52919;DHT22;38793;52.690;6.812;2023-04-30T13:32:48;17.70;94.20
52919;DHT22;38793;52.690;6.812;2023-04-30T13:35:13;17.70;94.40
52919;DHT22;38793;52.690;6.812;2023-04-30T13:37:39;17.90;94.80
52919;DHT22;38793;52.690;6.812;2023-04-30T13:40:08;18.00;94.60
52919;DHT22;38793;52.690;6.812;2023-04-30T13:42:39;18.10;95.40
52919;DHT22;38793;52.690;6.812;2023-04-30T13:45:06;18.20;94.00
52919;DHT22;38793;52.690;6.812;2023-04-30T13:47:32;18.20;93.90
52919;DHT22;38793;52.690;6.812;2023-04-30T13:49:58;18.10;93.80
52919;DHT22;38793;52.690;6.812;2023-04-30T13:52:24;17.90;93.30
52919;DHT22;38793;52.690;6.812;2023-04-30T13:54:51;17.80;93.30
52919;DHT22;38793;52.690;6.812;2023-04-30T13:57:16;17.70;93.40
52919;DHT22;38793;52.690;6.812;2023-04-30T13:59:42;17.70;94.00
52919;DHT22;38793;52.690;6.812;2023-04-30T14:02:08;17.80;93.60
52919;DHT22;38793;52.690;6.812;2023-04-30T14:04:33;17.80;93.40
52919;DHT22;38793;52.690;6.812;2023-04-30T14:07:00;17.90;93.20
52919;DHT22;38793;52.690;6.812;2023-04-30T14:09:26;17.90;93.70
52919;DHT22;38793;52.690;6.812;2023-04-30T14:11:51;18.00;93.10
52919;DHT22;38793;52.690;6.812;2023-04-30T14:14:17;18.00;93.30
52919;DHT22;38793;52.690;6.812;2023-04-30T14:16:43;18.10;93.50
52919;DHT22;38793;52.690;6.812;2023-04-30T14:19:09;18.20;93.10
52919;DHT22;38793;52.690;6.812;2023-04-30T14:21:35;18.30;92.20
52919;DHT22;38793;52.690;6.812;2023-04-30T14:24:00;18.40;92.70
52919;DHT22;38793;52.690;6.812;2023-04-30T14:26:26;18.40;92.30
52919;DHT22;38793;52.690;6.812;2023-04-30T14:28:52;18.40;91.90
52919;DHT22;38793;52.690;6.812;2023-04-30T14:31:17;18.30;91.50
52919;DHT22;38793;52.690;6.812;2023-04-30T14:33:43;18.30;92.10
52919;DHT22;38793;52.690;6.812;2023-04-30T14:36:09;18.20;91.70
52919;DHT22;38793;52.690;6.812;2023-04-30T14:38:35;18.10;91.60
52919;DHT22;38793;52.690;6.812;2023-04-30T14:41:01;18.10;91.80
52919;DHT22;38793;52.690;6.812;2023-04-30T14:43:26;18.00;91.70
52919;DHT22;38793;52.690;6.812;2023-04-30T14:45:52;17.90;91.50
52919;DHT22;38793;52.690;6.812;2023-04-30T14:48:18;17.90;91.10
52919;DHT22;38793;52.690;6.812;2023-04-30T14:50:44;17.90;91.80
52919;DHT22;38793;52.690;6.812;2023-04-30T14:53:09;18.00;91.60
52919;DHT22;38793;52.690;6.812;2023-04-30T14:55:37;18.00;91.60
52919;DHT22;38793;52.690;6.812;2023-04-30T14:58:03;17.90;91.00
52919;DHT22;38793;52.690;6.812;2023-04-30T15:00:30;17.90;91.20
52919;DHT22;38793;52.690;6.812;2023-04-30T15:02:56;18.00;90.60
52919;DHT22;38793;52.690;6.812;2023-04-30T15:05:22;18.00;90.10
52919;DHT22;38793;52.690;6.812;2023-04-30T15:07:47;17.90;91.20
52919;DHT22;38793;52.690;6.812;2023-04-30T15:10:13;17.70;90.80
52919;DHT22;38793;52.690;6.812;2023-04-30T15:12:38;17.60;90.80
52919;DHT22;38793;52.690;6.812;2023-04-30T15:15:05;17.50;91.00
52919;DHT22;38793;52.690;6.812;2023-04-30T15:17:31;17.50;91.10
52919;DHT22;38793;52.690;6.812;2023-04-30T15:20:04;17.50;91.20
52919;DHT22;38793;52.690;6.812;2023-04-30T15:22:31;17.60;90.90
52919;DHT22;38793;52.690;6.812;2023-04-30T15:24:58;17.60;91.30
52919;DHT22;38793;52.690;6.812;2023-04-30T15:27:24;17.80;90.70
52919;DHT22;38793;52.690;6.812;2023-04-30T15:29:50;17.70;89.30
52919;DHT22;38793;52.690;6.812;2023-04-30T15:32:17;17.80;90.40
52919;DHT22;38793;52.690;6.812;2023-04-30T15:34:43;17.80;90.60
52919;DHT22;38793;52.690;6.812;2023-04-30T15:37:08;17.80;90.10
52919;DHT22;38793;52.690;6.812;2023-04-30T15:39:34;17.80;90.80
52919;DHT22;38793;52.690;6.812;2023-04-30T15:42:00;17.70;90.20
52919;DHT22;38793;52.690;6.812;2023-04-30T15:44:26;17.60;91.10
52919;DHT22;38793;52.690;6.812;2023-04-30T15:46:52;17.60;90.80
52919;DHT22;38793;52.690;6.812;2023-04-30T15:49:17;17.50;91.10
52919;DHT22;38793;52.690;6.812;2023-04-30T15:51:43;17.40;91.10
52919;DHT22;38793;52.690;6.812;2023-04-30T15:54:10;17.30;90.30
52919;DHT22;38793;52.690;6.812;2023-04-30T15:56:38;17.20;90.70